Time;durP1;ratioP1;P1;durP2;ratioP2;P2;SDS_P1;SDS_P2;PMS_P1;PMS_P2;Temp;Humidity;BMP_temperature;BMP_pressure;BME280_temperature;BME280_humidity;BME280_pressure;Samples;Min_cycle;Max_cycle;Signal;HPM_P1;HPM_P2
2021/06/20 00:01:33;;;;;;;;;;;;;;;10.62;100.00;98721.25;5137704;27;20370;-80
2021/06/20 00:04:02;;;;;;;;;;;;;;;10.65;100.00;98721.19;5119527;27;19924;-80
2021/06/20 00:06:31;;;;;;;;;;;;;;;10.67;100.00;98717.94;5137549;27;20358;-80
2021/06/20 00:08:59;;;;;;;;;;;;;;;10.63;100.00;98717.25;5137184;27;20018;-80
2021/06/20 00:11:27;;;;;;;;;;;;;;;10.62;100.00;98715.66;5102052;27;19923;-80
2021/06/20 00:13:55;;;;;;;;;;;;;;;10.58;100.00;98714.97;5101980;27;20395;-80
2021/06/20 00:16:22;;;;;;;;;;;;;;;10.56;100.00;98709.81;5137334;27;19973;-80
2021/06/20 00:18:49;;;;;;;;;;;;;;;10.62;100.00;98715.66;5137340;27;20371;-81
2021/06/20 00:21:17;;;;;;;;;;;;;;;10.69;100.00;98723.91;5118971;27;19984;-80
2021/06/20 00:23:44;;;;;;;;;;;;;;;10.65;100.00;98720.38;5118800;27;19930;-80
2021/06/20 00:26:12;;;;;;;;;;;;;;;10.66;100.00;98721.97;5119195;27;20303;-81
2021/06/20 00:28:39;;;;;;;;;;;;;;;10.62;100.00;98726.84;5118793;27;19924;-80
2021/06/20 00:31:07;;;;;;;;;;;;;;;10.52;100.00;98730.66;5102074;27;19927;-80
2021/06/20 00:33:34;;;;;;;;;;;;;;;10.39;100.00;98732.53;5118858;27;19923;-80
2021/06/20 00:36:01;;;;;;;;;;;;;;;10.40;100.00;98736.88;5136985;27;19923;-80
2021/06/20 00:38:28;;;;;;;;;;;;;;;10.29;100.00;98737.09;5081244;28;20395;-80
2021/06/20 00:40:55;;;;;;;;;;;;;;;10.29;100.00;98737.09;5130577;27;20010;-80
2021/06/20 00:43:22;;;;;;;;;;;;;;;10.22;100.00;98722.50;5136581;27;19928;-80
2021/06/20 00:45:50;;;;;;;;;;;;;;;10.22;100.00;98726.06;5101735;27;19929;-80
2021/06/20 00:48:17;;;;;;;;;;;;;;;10.10;100.00;98717.56;5117983;27;19931;-80
2021/06/20 00:50:44;;;;;;;;;;;;;;;10.02;100.00;98718.88;5100930;27;19930;-80
2021/06/20 00:53:12;;;;;;;;;;;;;;;10.04;100.00;98724.81;5075795;28;19969;-80
2021/06/20 00:55:39;;;;;;;;;;;;;;;10.05;100.00;98718.81;5130689;27;20462;-80
2021/06/20 00:58:07;;;;;;;;;;;;;;;10.04;100.00;98719.25;5118005;27;19964;-80
2021/06/20 01:00:35;;;;;;;;;;;;;;;9.95;100.00;98714.19;5136159;27;19930;-80
2021/06/20 01:03:04;;;;;;;;;;;;;;;9.93;100.00;98713.84;5136046;27;20023;-80
2021/06/20 01:05:31;;;;;;;;;;;;;;;9.88;100.00;98714.34;5136550;27;19955;-80
2021/06/20 01:07:59;;;;;;;;;;;;;;;9.87;100.00;98712.78;5136368;27;19931;-80
2021/06/20 01:10:28;;;;;;;;;;;;;;;9.80;100.00;98709.34;5135938;27;19968;-80
2021/06/20 01:12:55;;;;;;;;;;;;;;;9.79;100.00;98707.75;5084247;27;20006;-80
2021/06/20 01:15:23;;;;;;;;;;;;;;;9.84;100.00;98696.88;5136154;27;19931;-80
2021/06/20 01:17:50;;;;;;;;;;;;;;;9.92;100.00;98705.91;5136098;27;19923;-80
2021/06/20 01:20:19;;;;;;;;;;;;;;;9.96;100.00;98704.63;5117714;27;19937;-80
2021/06/20 01:22:49;;;;;;;;;;;;;;;9.87;100.00;98703.63;5116495;27;19931;-80
2021/06/20 01:25:18;;;;;;;;;;;;;;;10.01;100.00;98703.34;5117234;27;19924;-80
2021/06/20 01:27:49;;;;;;;;;;;;;;;10.02;100.00;98702.13;5117392;27;19923;-80
2021/06/20 01:30:18;;;;;;;;;;;;;;;10.03;100.00;98704.47;5135760;27;20013;-80
2021/06/20 01:32:46;;;;;;;;;;;;;;;10.04;100.00;98708.06;5135929;27;19951;-80
2021/06/20 01:35:14;;;;;;;;;;;;;;;10.04;100.00;98708.06;5135309;27;20271;-80
2021/06/20 01:37:42;;;;;;;;;;;;;;;10.09;100.00;98721.53;5100557;27;20389;-80
2021/06/20 01:40:11;;;;;;;;;;;;;;;10.02;100.00;98718.88;5135477;27;20366;-80
2021/06/20 01:42:39;;;;;;;;;;;;;;;10.05;100.00;98715.22;5135548;27;19968;-80
2021/06/20 01:45:08;;;;;;;;;;;;;;;10.14;100.00;98715.47;5135804;27;20396;-80
2021/06/20 01:47:36;;;;;;;;;;;;;;;10.24;100.00;98711.66;5135333;27;20423;-80
2021/06/20 01:50:05;;;;;;;;;;;;;;;10.31;100.00;98706.75;5135245;27;19935;-80
2021/06/20 01:52:33;;;;;;;;;;;;;;;10.29;100.00;98714.75;5117090;27;19923;-80
2021/06/20 01:55:00;;;;;;;;;;;;;;;10.26;100.00;98714.81;5135346;27;19924;-80
2021/06/20 01:57:28;;;;;;;;;;;;;;;10.18;100.00;98718.97;5116864;27;20014;-80
2021/06/20 01:59:56;;;;;;;;;;;;;;;10.21;100.00;98720.91;5116648;27;19923;-80
2021/06/20 02:02:25;;;;;;;;;;;;;;;10.27;100.00;98710.84;5116201;27;19976;-80
2021/06/20 02:04:55;;;;;;;;;;;;;;;10.24;100.00;98706.09;5116981;27;19934;-80
2021/06/20 02:07:23;;;;;;;;;;;;;;;10.15;100.00;98698.28;5116610;27;20014;-80
2021/06/20 02:09:50;;;;;;;;;;;;;;;10.13;100.00;98694.38;5116761;27;19966;-81
2021/06/20 02:12:19;;;;;;;;;;;;;;;10.07;100.00;98701.66;5134900;27;20053;-80
2021/06/20 02:14:46;;;;;;;;;;;;;;;10.11;100.00;98705.16;5116661;27;19929;-80
2021/06/20 02:17:27;;;;;;;;;;;;;;;10.06;100.00;98695.25;5116330;27;19927;-80
2021/06/20 02:19:55;;;;;;;;;;;;;;;10.02;100.00;98693.75;5121520;27;19927;-81
2021/06/20 02:22:23;;;;;;;;;;;;;;;10.04;100.00;98694.13;5116625;27;20450;-81
2021/06/20 02:24:50;;;;;;;;;;;;;;;9.95;100.00;98691.09;5134695;27;20010;-81
2021/06/20 02:27:17;;;;;;;;;;;;;;;9.94;100.00;98690.31;5116590;27;20382;-80
2021/06/20 02:29:45;;;;;;;;;;;;;;;9.93;100.00;98690.75;5134579;27;19968;-80
2021/06/20 02:32:13;;;;;;;;;;;;;;;9.93;100.00;98685.16;5116156;27;19958;-81
2021/06/20 02:34:41;;;;;;;;;;;;;;;9.77;100.00;98699.78;5134423;27;19923;-80
2021/06/20 02:37:09;;;;;;;;;;;;;;;9.67;100.00;98698.00;5099751;27;19923;-80
2021/06/20 02:39:37;;;;;;;;;;;;;;;9.75;100.00;98695.88;5134612;27;19924;-80
2021/06/20 02:42:05;;;;;;;;;;;;;;;9.78;100.00;98700.59;5134542;27;20458;-80
2021/06/20 02:44:33;;;;;;;;;;;;;;;9.78;100.00;98695.00;5134491;27;19927;-80
2021/06/20 02:47:01;;;;;;;;;;;;;;;9.83;100.00;98709.25;5116097;28;19923;-80
2021/06/20 02:49:30;;;;;;;;;;;;;;;9.83;100.00;98706.47;5134676;27;19923;-80
2021/06/20 02:51:57;;;;;;;;;;;;;;;9.71;100.00;98711.91;5116048;28;19923;-80
2021/06/20 02:54:24;;;;;;;;;;;;;;;9.65;100.00;98713.59;5134556;28;19923;-80
2021/06/20 02:56:52;;;;;;;;;;;;;;;9.60;100.00;98722.44;5132864;27;19924;-80
2021/06/20 02:59:19;;;;;;;;;;;;;;;9.71;100.00;98720.25;5099210;28;20014;-80
2021/06/20 03:01:46;;;;;;;;;;;;;;;9.89;100.00;98717.94;5115873;27;19934;-80
2021/06/20 03:04:13;;;;;;;;;;;;;;;10.00;100.00;98719.28;5134317;27;19927;-80
2021/06/20 03:06:41;;;;;;;;;;;;;;;9.98;100.00;98709.78;5134557;27;19930;-80
2021/06/20 03:09:08;;;;;;;;;;;;;;;10.08;100.00;98698.44;5134312;27;19924;-80
2021/06/20 03:11:41;;;;;;;;;;;;;;;10.10;100.00;98698.00;5116352;27;20022;-81
2021/06/20 03:14:11;;;;;;;;;;;;;;;10.08;100.00;98703.22;5120243;27;20008;-80
2021/06/20 03:16:38;;;;;;;;;;;;;;;10.07;100.00;98693.28;5138212;27;19927;-80
2021/06/20 03:19:06;;;;;;;;;;;;;;;9.95;100.00;98691.09;5138395;27;19923;-80
2021/06/20 03:21:34;;;;;;;;;;;;;;;9.94;100.00;98698.69;5138443;27;19934;-81
2021/06/20 03:24:01;;;;;;;;;;;;;;;10.02;100.00;98696.53;5103059;27;20438;-80
2021/06/20 03:26:28;;;;;;;;;;;;;;;10.13;100.00;98694.38;5138373;27;19930;-80
2021/06/20 03:28:56;;;;;;;;;;;;;;;10.18;100.00;98696.63;5138133;27;20457;-80
2021/06/20 03:31:24;;;;;;;;;;;;;;;10.26;100.00;98706.44;5133297;27;19932;-80
2021/06/20 03:33:51;;;;;;;;;;;;;;;10.27;100.00;98708.03;5119785;27;20019;-80
2021/06/20 03:36:18;;;;;;;;;;;;;;;10.12;100.00;98698.34;5120021;27;19931;-80
2021/06/20 03:38:45;;;;;;;;;;;;;;;10.06;100.00;98700.03;5119793;27;19924;-80
2021/06/20 03:41:14;;;;;;;;;;;;;;;10.02;100.00;98693.75;5137867;27;19985;-80
2021/06/20 03:43:44;;;;;;;;;;;;;;;10.01;100.00;98692.19;5138121;27;19934;-80
2021/06/20 03:46:11;;;;;;;;;;;;;;;10.03;100.00;98689.72;5102949;27;19923;-80
2021/06/20 03:48:38;;;;;;;;;;;;;;;10.06;100.00;98697.25;5102500;27;19924;-80
2021/06/20 03:51:06;;;;;;;;;;;;;;;10.08;100.00;98692.06;5120113;27;19923;-80
2021/06/20 03:53:33;;;;;;;;;;;;;;;10.02;100.00;98699.34;5119586;27;20016;-81
2021/06/20 03:56:02;;;;;;;;;;;;;;;10.04;100.00;98694.13;5137940;27;19923;-81
2021/06/20 03:58:29;;;;;;;;;;;;;;;9.94;100.00;98700.66;5137580;27;19923;-81
2021/06/20 04:00:56;;;;;;;;;;;;;;;10.02;100.00;98702.13;5137567;27;19931;-81
2021/06/20 04:03:23;;;;;;;;;;;;;;;9.98;100.00;98702.19;5119416;27;19928;-80
2021/06/20 04:05:50;;;;;;;;;;;;;;;10.02;100.00;98699.34;5137785;27;19931;-80
2021/06/20 04:08:19;;;;;;;;;;;;;;;9.98;100.00;98698.63;5137146;27;19923;-81
2021/06/20 04:10:46;;;;;;;;;;;;;;;10.00;100.00;98713.72;5137773;27;19942;-81
2021/06/20 04:13:14;;;;;;;;;;;;;;;9.99;100.00;98711.34;5102390;27;20034;-81
2021/06/20 04:15:41;;;;;;;;;;;;;;;10.02;100.00;98713.28;5137042;27;19930;-81
2021/06/20 04:18:09;;;;;;;;;;;;;;;10.01;100.00;98714.50;5112902;27;20026;-81
2021/06/20 04:20:36;;;;;;;;;;;;;;;10.04;100.00;98719.25;5131770;27;20392;-81
2021/06/20 04:23:03;;;;;;;;;;;;;;;10.04;100.00;98731.16;5136888;27;20061;-81
2021/06/20 04:25:30;;;;;;;;;;;;;;;10.08;100.00;98731.94;5101427;27;20302;-81
2021/06/20 04:27:57;;;;;;;;;;;;;;;10.10;100.00;98762.22;5137209;27;19927;-81
2021/06/20 04:30:24;;;;;;;;;;;;;;;10.05;100.00;98793.38;5137104;27;20388;-80
2021/06/20 04:32:52;;;;;;;;;;;;;;;10.11;100.00;98814.03;5137494;27;20328;-80
2021/06/20 04:35:20;;;;;;;;;;;;;;;10.07;100.00;98846.81;5119167;27;19958;-80
2021/06/20 04:37:49;;;;;;;;;;;;;;;9.94;100.00;98871.72;5118956;27;19928;-80
2021/06/20 04:40:21;;;;;;;;;;;;;;;9.96;100.00;98891.63;5119182;27;19923;-82
2021/06/20 04:42:57;;;;;;;;;;;;;;;9.83;100.00;98898.22;5136934;27;19955;-85
2021/06/20 04:45:24;;;;;;;;;;;;;;;9.81;100.00;98898.66;5104616;27;19930;-85
2021/06/20 04:47:53;;;;;;;;;;;;;;;9.82;100.00;98903.00;5136845;27;19923;-85
2021/06/20 04:50:20;;;;;;;;;;;;;;;9.85;100.00;98906.94;5101965;27;20068;-85
2021/06/20 04:52:47;;;;;;;;;;;;;;;9.92;100.00;98909.63;5110984;27;19924;-85
2021/06/20 04:55:15;;;;;;;;;;;;;;;9.95;100.00;98906.00;5136695;27;19927;-85
2021/06/20 04:57:42;;;;;;;;;;;;;;;10.04;100.00;98920.22;5101487;27;19928;-85
2021/06/20 05:00:09;;;;;;;;;;;;;;;9.98;100.00;98905.16;5113606;27;19946;-84
2021/06/20 05:02:37;;;;;;;;;;;;;;;10.05;100.00;98910.63;5131150;27;19923;-84
2021/06/20 05:05:06;;;;;;;;;;;;;;;10.13;100.00;98917.69;5136683;27;19927;-85
2021/06/20 05:07:34;;;;;;;;;;;;;;;10.08;100.00;98915.38;5136313;27;20022;-84
2021/06/20 05:10:05;;;;;;;;;;;;;;;10.03;100.00;99088.88;5101576;27;19928;-84
2021/06/20 05:12:32;;;;;;;;;;;;;;;9.94;100.00;99097.00;5117560;27;19924;-84
2021/06/20 05:14:59;;;;;;;;;;;;;;;9.99;100.00;99099.31;5084364;27;20026;-84
2021/06/20 05:17:28;;;;;;;;;;;;;;;9.92;100.00;99097.41;5101974;27;20003;-84
2021/06/20 05:19:55;;;;;;;;;;;;;;;9.96;100.00;99100.97;5136095;27;19934;-85
2021/06/20 05:22:22;;;;;;;;;;;;;;;9.92;100.00;99108.56;5136023;27;19945;-84
2021/06/20 05:24:49;;;;;;;;;;;;;;;9.89;100.00;99109.41;5100486;27;20396;-85
2021/06/20 05:27:16;;;;;;;;;;;;;;;9.95;100.00;99109.75;5117706;27;19973;-85
2021/06/20 05:29:44;;;;;;;;;;;;;;;10.04;100.00;99115.63;5117918;27;19935;-84
2021/06/20 05:32:11;;;;;;;;;;;;;;;10.07;100.00;99114.81;5123973;27;19924;-84
2021/06/20 05:34:38;;;;;;;;;;;;;;;10.01;100.00;99116.44;5122022;27;20335;-84
2021/06/20 05:37:05;;;;;;;;;;;;;;;10.11;100.00;99126.72;5130222;27;19923;-84
2021/06/20 05:39:33;;;;;;;;;;;;;;;10.21;100.00;99134.16;5117465;27;20267;-84
2021/06/20 05:42:00;;;;;;;;;;;;;;;10.15;100.00;99130.25;5120440;27;19923;-84
2021/06/20 05:44:29;;;;;;;;;;;;;;;10.19;100.00;99131.00;5108439;27;19946;-84
2021/06/20 05:46:56;;;;;;;;;;;;;;;10.10;100.00;99125.91;5100445;27;19923;-84
2021/06/20 05:49:23;;;;;;;;;;;;;;;10.23;100.00;99123.34;5117156;27;20431;-85
2021/06/20 05:51:50;;;;;;;;;;;;;;;10.35;100.00;99287.56;5100454;27;19991;-84
2021/06/20 05:54:17;;;;;;;;;;;;;;;10.49;100.00;99285.44;5117691;27;19931;-85
2021/06/20 05:56:44;;;;;;;;;;;;;;;10.54;100.00;99279.34;5116806;27;19924;-85
2021/06/20 05:59:12;;;;;;;;;;;;;;;10.63;100.00;99288.00;5096084;27;20396;-84
2021/06/20 06:01:39;;;;;;;;;;;;;;;10.56;100.00;99287.31;5128065;27;20028;-84
2021/06/20 06:04:07;;;;;;;;;;;;;;;10.61;100.00;99289.66;5114150;27;20324;-85
2021/06/20 06:06:34;;;;;;;;;;;;;;;10.66;100.00;99289.19;5109623;27;19927;-85
2021/06/20 06:09:01;;;;;;;;;;;;;;;10.58;100.00;99287.69;5133897;27;19978;-84
2021/06/20 06:11:28;;;;;;;;;;;;;;;10.64;100.00;99283.22;5126584;27;19984;-85
2021/06/20 06:13:56;;;;;;;;;;;;;;;10.75;100.00;99278.31;5113184;28;20335;-84
2021/06/20 06:16:23;;;;;;;;;;;;;;;10.80;100.00;99281.41;5117020;27;20401;-84
2021/06/20 06:18:50;;;;;;;;;;;;;;;10.71;100.00;99277.53;5116860;27;19931;-82
2021/06/20 06:21:18;;;;;;;;;;;;;;;10.80;100.00;99275.03;5135355;27;19923;-84
2021/06/20 06:23:45;;;;;;;;;;;;;;;10.77;100.00;99275.88;5127697;27;20016;-86
2021/06/20 06:26:13;;;;;;;;;;;;;;;10.66;100.00;99275.22;5118419;27;20418;-87
2021/06/20 06:28:40;;;;;;;;;;;;;;;10.64;100.00;99269.25;5121783;27;19946;-86
2021/06/20 06:31:08;;;;;;;;;;;;;;;10.79;100.00;99268.66;5095757;27;20811;-86
2021/06/20 06:33:35;;;;;;;;;;;;;;;10.74;100.00;99262.72;5088637;27;20332;-85
2021/06/20 06:36:02;;;;;;;;;;;;;;;10.71;100.00;99266.34;5079067;27;20030;-85
2021/06/20 06:38:30;;;;;;;;;;;;;;;10.67;100.00;99265.63;5134716;27;19923;-85
2021/06/20 06:40:57;;;;;;;;;;;;;;;10.70;100.00;99270.38;5123131;27;20270;-85
2021/06/20 06:43:24;;;;;;;;;;;;;;;10.68;100.00;99262.41;5092247;28;20293;-85
2021/06/20 06:45:51;;;;;;;;;;;;;;;10.62;100.00;99263.28;5122726;28;20378;-85
2021/06/20 06:48:19;;;;;;;;;;;;;;;10.72;100.00;99267.97;5095114;27;20385;-85
2021/06/20 06:50:46;;;;;;;;;;;;;;;10.76;100.00;99274.28;5099309;28;19924;-85
2021/06/20 06:53:13;;;;;;;;;;;;;;;10.71;100.00;99263.56;5116483;28;20409;-85
2021/06/20 06:55:41;;;;;;;;;;;;;;;10.72;100.00;99262.38;5080974;28;19923;-85
2021/06/20 06:58:08;;;;;;;;;;;;;;;10.79;100.00;99267.84;5097833;28;19923;-85
2021/06/20 07:00:36;;;;;;;;;;;;;;;10.72;100.00;99267.97;5086462;28;20374;-85
2021/06/20 07:03:03;;;;;;;;;;;;;;;10.73;100.00;99258.34;5113434;28;20301;-85
2021/06/20 07:05:30;;;;;;;;;;;;;;;10.70;100.00;99259.19;5079037;28;19924;-85
2021/06/20 07:07:58;;;;;;;;;;;;;;;10.77;100.00;99254.31;5112714;28;19930;-85
2021/06/20 07:10:25;;;;;;;;;;;;;;;10.72;100.00;99249.16;5119951;28;20293;-86
2021/06/20 07:12:52;;;;;;;;;;;;;;;10.83;100.00;99246.22;5124744;27;20030;-84
2021/06/20 07:15:19;;;;;;;;;;;;;;;10.99;100.00;99244.38;5111936;28;20268;-87
2021/06/20 07:17:47;;;;;;;;;;;;;;;11.12;100.00;99246.63;5116011;28;19924;-87
2021/06/20 07:20:16;;;;;;;;;;;;;;;11.28;100.00;99255.97;5071935;28;19927;-88
2021/06/20 07:22:44;;;;;;;;;;;;;;;11.38;100.00;99252.19;5110323;28;19930;-88
2021/06/20 07:25:13;;;;;;;;;;;;;;;11.54;100.00;99243.91;5102798;28;20278;-81
2021/06/20 07:27:40;;;;;;;;;;;;;;;11.58;100.00;99233.47;5124084;27;19931;-81
2021/06/20 07:30:09;;;;;;;;;;;;;;;11.87;100.00;99236.56;5104606;28;19923;-81
2021/06/20 07:32:36;;;;;;;;;;;;;;;11.95;100.00;99222.00;5116029;28;19924;-82
2021/06/20 07:35:04;;;;;;;;;;;;;;;12.08;100.00;99208.16;5147196;27;19955;-82
2021/06/20 07:37:32;;;;;;;;;;;;;;;12.04;100.00;99197.03;5116681;27;19927;-81
2021/06/20 07:39:59;;;;;;;;;;;;;;;12.18;100.00;99193.16;5129798;27;19929;-80
2021/06/20 07:42:26;;;;;;;;;;;;;;;12.24;100.00;99178.22;5146313;27;20273;-82
2021/06/20 07:44:53;;;;;;;;;;;;;;;12.14;100.00;98876.75;5129221;27;19930;-81
2021/06/20 07:47:20;;;;;;;;;;;;;;;12.15;100.00;98872.72;5134751;27;20658;-81
2021/06/20 07:49:47;;;;;;;;;;;;;;;12.36;100.00;98855.34;5152793;27;19972;-81
2021/06/20 07:52:14;;;;;;;;;;;;;;;12.36;100.00;98844.13;5115785;28;19951;-81
2021/06/20 07:54:49;;;;;;;;;;;;;;;12.35;100.00;98838.97;5126693;28;20401;-82
2021/06/20 07:57:17;;;;;;;;;;;;;;;12.52;100.00;98818.91;5085959;28;19924;-82
2021/06/20 07:59:45;;;;;;;;;;;;;;;12.26;100.00;98808.81;5126013;27;19979;-82
2021/06/20 08:02:12;;;;;;;;;;;;;;;12.51;100.00;98806.09;5107727;27;19923;-76
2021/06/20 08:04:40;;;;;;;;;;;;;;;12.50;100.00;98798.94;5119242;27;20347;-80
2021/06/20 08:07:09;;;;;;;;;;;;;;;12.48;100.00;98797.81;5135906;27;20326;-76
2021/06/20 08:09:36;;;;;;;;;;;;;;;12.58;100.00;98774.31;5112031;27;19927;-87
2021/06/20 08:12:04;;;;;;;;;;;;;;;12.49;100.00;98758.13;5119068;27;19923;-88
2021/06/20 08:14:31;;;;;;;;;;;;;;;12.46;100.00;98742.19;5120523;27;19950;-88
2021/06/20 08:16:59;;;;;;;;;;;;;;;12.44;100.00;98655.00;5116636;27;20036;-87
2021/06/20 08:19:26;;;;;;;;;;;;;;;12.59;100.00;98656.16;5112904;27;19928;-87
2021/06/20 08:21:55;;;;;;;;;;;;;;;12.40;100.00;98647.94;5059888;27;19924;-86
2021/06/20 08:24:22;;;;;;;;;;;;;;;12.41;100.00;98655.91;5101562;27;20689;-88
2021/06/20 08:26:49;;;;;;;;;;;;;;;12.22;100.00;98648.44;5125230;27;19930;-86
2021/06/20 08:29:16;;;;;;;;;;;;;;;12.12;100.00;98646.75;5124183;27;19930;-87
2021/06/20 08:31:43;;;;;;;;;;;;;;;11.90;100.00;98637.38;5123891;27;19924;-89
2021/06/20 08:34:11;;;;;;;;;;;;;;;12.09;100.00;98636.44;5124516;27;20294;-86
2021/06/20 08:36:38;;;;;;;;;;;;;;;11.96;100.00;98624.41;5116030;27;19969;-86
2021/06/20 08:39:06;;;;;;;;;;;;;;;12.17;100.00;98623.81;5089847;27;20014;-86
2021/06/20 08:41:38;;;;;;;;;;;;;;;12.46;100.00;98618.13;5097102;27;19924;-88
2021/06/20 08:44:17;;;;;;;;;;;;;;;12.68;100.00;98613.44;5116052;27;19973;-86
2021/06/20 08:46:44;;;;;;;;;;;;;;;12.64;100.00;98610.75;5116151;27;19923;-84
2021/06/20 08:49:12;;;;;;;;;;;;;;;12.83;100.00;98603.31;5099218;27;19934;-85
2021/06/20 08:51:40;;;;;;;;;;;;;;;12.96;100.00;98606.13;5112812;27;19958;-86
2021/06/20 08:54:07;;;;;;;;;;;;;;;13.13;100.00;98604.81;5109415;27;20014;-86
2021/06/20 08:56:35;;;;;;;;;;;;;;;13.34;100.00;98592.84;5117871;27;20022;-86
2021/06/20 08:59:05;;;;;;;;;;;;;;;13.50;100.00;98596.28;5081393;28;19928;-86
2021/06/20 09:01:33;;;;;;;;;;;;;;;13.37;100.00;98587.13;5108289;27;19929;-86
2021/06/20 09:04:00;;;;;;;;;;;;;;;13.45;100.00;98582.81;5130512;27;19972;-79
2021/06/20 09:06:28;;;;;;;;;;;;;;;13.30;100.00;98584.56;5113740;27;19930;-85
2021/06/20 09:08:57;;;;;;;;;;;;;;;13.43;100.00;98584.53;5093842;27;20018;-85
2021/06/20 09:11:34;;;;;;;;;;;;;;;13.48;100.00;98575.53;5098048;27;19931;-86
2021/06/20 09:14:02;;;;;;;;;;;;;;;13.58;100.00;98580.78;5098235;27;19931;-85
2021/06/20 09:16:29;;;;;;;;;;;;;;;13.67;100.00;98578.03;5098343;27;19923;-89
2021/06/20 09:18:57;;;;;;;;;;;;;;;13.55;100.00;98564.03;5081279;27;19932;-85
2021/06/20 09:21:27;;;;;;;;;;;;;;;13.51;100.00;98563.41;5111551;28;20487;-83
2021/06/20 09:23:55;;;;;;;;;;;;;;;13.39;100.00;98544.59;5092728;27;20010;-85
2021/06/20 09:26:39;;;;;;;;;;;;;;;13.51;100.00;98547.31;5110701;27;20016;-83
2021/06/20 09:29:07;;;;;;;;;;;;;;;13.76;100.00;98547.22;5116731;27;19924;-83
2021/06/20 09:31:45;;;;;;;;;;;;;;;13.67;100.00;98535.13;5112866;27;19931;-83
2021/06/20 09:34:12;;;;;;;;;;;;;;;13.88;100.00;98539.97;5114458;27;19927;-86
2021/06/20 09:36:39;;;;;;;;;;;;;;;13.96;100.00;98544.88;5114870;27;20347;-84
2021/06/20 09:39:19;;;;;;;;;;;;;;;13.92;100.00;98552.63;5097670;27;19928;-84
2021/06/20 09:42:04;;;;;;;;;;;;;;;13.88;100.00;98548.38;5083260;27;19935;-84
2021/06/20 09:44:39;;;;;;;;;;;;;;;13.82;100.00;98547.41;5122197;27;19927;-90
2021/06/20 09:47:07;;;;;;;;;;;;;;;13.87;100.00;98546.81;5092335;27;19934;-87
2021/06/20 09:49:36;;;;;;;;;;;;;;;13.89;100.00;98549.94;5097216;27;19924;-87
2021/06/20 09:52:03;;;;;;;;;;;;;;;13.79;100.00;98546.31;5112037;27;20006;-87
2021/06/20 09:54:35;;;;;;;;;;;;;;;14.02;100.00;98548.66;5113274;27;19976;-87
2021/06/20 09:57:03;;;;;;;;;;;;;;;14.39;100.00;98549.63;5112598;27;20039;-88
2021/06/20 09:59:32;;;;;;;;;;;;;;;14.44;100.00;98549.03;5116093;27;19930;-90
2021/06/20 10:02:10;;;;;;;;;;;;;;;14.76;100.00;98547.75;5093770;27;20019;-90
2021/06/20 10:04:39;;;;;;;;;;;;;;;14.88;100.00;98536.41;5096769;27;19931;-81
2021/06/20 10:07:09;;;;;;;;;;;;;;;14.83;100.00;98533.44;5131150;27;19930;-80
2021/06/20 10:09:37;;;;;;;;;;;;;;;14.74;100.00;98536.97;5142771;27;19930;-88
2021/06/20 10:12:05;;;;;;;;;;;;;;;14.72;100.00;98535.88;5106439;27;20021;-89
2021/06/20 10:14:33;;;;;;;;;;;;;;;14.82;100.00;98532.63;5097095;27;20386;-88
2021/06/20 10:17:08;;;;;;;;;;;;;;;14.56;100.00;98539.72;5114643;27;20427;-83
2021/06/20 10:19:40;;;;;;;;;;;;;;;14.33;100.00;98537.44;5143633;27;19923;-86
2021/06/20 10:22:09;;;;;;;;;;;;;;;14.26;100.00;98540.53;5069086;27;20009;-86
2021/06/20 10:24:49;;;;;;;;;;;;;;;14.08;100.00;98546.03;5096082;27;19932;-85
2021/06/20 10:27:35;;;;;;;;;;;;;;;14.04;100.00;98548.19;5094623;27;19931;-84
2021/06/20 10:30:06;;;;;;;;;;;;;;;13.97;100.00;98540.00;5091818;27;19927;-80
2021/06/20 10:32:36;;;;;;;;;;;;;;;13.78;100.00;98550.34;5131770;27;20651;-88
2021/06/20 10:35:04;;;;;;;;;;;;;;;14.31;100.00;98545.56;5097786;27;20018;-87
2021/06/20 10:37:33;;;;;;;;;;;;;;;14.19;100.00;98546.41;5102382;27;19980;-87
2021/06/20 10:40:01;;;;;;;;;;;;;;;14.49;100.00;98537.97;5080805;27;19934;-87
2021/06/20 10:42:39;;;;;;;;;;;;;;;14.85;100.00;98531.72;5122059;27;19923;-87
2021/06/20 10:45:07;;;;;;;;;;;;;;;15.04;100.00;98515.66;5137859;27;20394;-84
2021/06/20 10:47:39;;;;;;;;;;;;;;;15.26;100.00;98528.34;5150543;27;20013;-85
2021/06/20 10:50:07;;;;;;;;;;;;;;;15.41;100.00;98523.69;5145766;27;19932;-81
2021/06/20 10:52:35;;;;;;;;;;;;;;;14.84;100.00;98521.72;5113215;27;19988;-81
2021/06/20 10:55:04;;;;;;;;;;;;;;;14.81;100.00;98519.03;5124763;27;19996;-81
2021/06/20 10:57:31;;;;;;;;;;;;;;;15.09;100.00;98518.63;5126379;27;19927;-81
2021/06/20 10:59:59;;;;;;;;;;;;;;;14.90;100.00;98511.41;5109111;27;19924;-82
2021/06/20 11:02:33;;;;;;;;;;;;;;;15.35;100.00;98519.13;5125463;27;19923;-81
2021/06/20 11:05:02;;;;;;;;;;;;;;;15.34;100.00;98515.50;5108671;27;19948;-85
2021/06/20 11:07:29;;;;;;;;;;;;;;;15.18;100.00;98507.38;5113356;27;19927;-89
2021/06/20 11:09:56;;;;;;;;;;;;;;;15.38;100.00;98499.31;5105409;27;19972;-89
2021/06/20 11:12:26;;;;;;;;;;;;;;;15.60;100.00;98496.31;5123229;27;20123;-89
2021/06/20 11:14:54;;;;;;;;;;;;;;;15.28;100.00;98492.06;5079701;28;19924;-81
2021/06/20 11:17:31;;;;;;;;;;;;;;;15.68;100.00;98492.72;5110336;27;20068;-80
2021/06/20 11:20:09;;;;;;;;;;;;;;;15.45;100.00;98489.78;5148586;27;20014;-79
2021/06/20 11:22:36;;;;;;;;;;;;;;;15.15;100.00;98497.06;5136735;27;19977;-81
2021/06/20 11:25:03;;;;;;;;;;;;;;;15.32;100.00;98495.53;5113128;28;19923;-81
2021/06/20 11:27:31;;;;;;;;;;;;;;;15.32;100.00;98500.34;5095458;27;19923;-81
2021/06/20 11:29:59;;;;;;;;;;;;;;;15.17;100.00;98500.19;5130279;27;20075;-82
2021/06/20 11:32:31;;;;;;;;;;;;;;;15.37;100.00;98506.16;5113445;27;19927;-81
2021/06/20 11:35:04;;;;;;;;;;;;;;;15.42;100.00;98502.72;5117065;27;19931;-82
2021/06/20 11:37:42;;;;;;;;;;;;;;;16.00;100.00;98508.94;5125767;27;20439;-82
2021/06/20 11:40:10;;;;;;;;;;;;;;;15.83;100.00;98516.16;5134569;27;19924;-81
2021/06/20 11:42:39;;;;;;;;;;;;;;;15.89;100.00;98505.03;5116162;27;20381;-81
2021/06/20 11:45:14;;;;;;;;;;;;;;;15.97;100.00;98511.91;5134839;27;19931;-81
2021/06/20 11:47:42;;;;;;;;;;;;;;;15.55;100.00;98511.81;5135385;27;20520;-81
2021/06/20 11:50:10;;;;;;;;;;;;;;;15.66;100.00;98519.78;5137397;27;19935;-82
2021/06/20 11:52:38;;;;;;;;;;;;;;;15.61;100.00;98515.56;5105480;28;19923;-81
2021/06/20 11:55:34;;;;;;;;;;;;;;;15.71;100.00;98517.13;5133612;27;20036;-81
2021/06/20 11:58:05;;;;;;;;;;;;;;;15.91;100.00;98506.13;5106707;27;19923;-81
2021/06/20 12:00:34;;;;;;;;;;;;;;;16.11;100.00;98500.75;5119493;27;19923;-81
2021/06/20 12:03:05;;;;;;;;;;;;;;;16.35;100.00;98498.03;5119538;27;19934;-81
2021/06/20 12:05:35;;;;;;;;;;;;;;;16.44;100.00;98485.94;5119505;27;19924;-81
2021/06/20 12:08:04;;;;;;;;;;;;;;;16.63;100.00;98493.84;5137827;27;19923;-82
2021/06/20 12:10:32;;;;;;;;;;;;;;;16.84;100.00;98497.66;5137812;27;19939;-82
2021/06/20 12:13:01;;;;;;;;;;;;;;;16.89;100.00;98488.56;5119111;27;19924;-81
2021/06/20 12:15:29;;;;;;;;;;;;;;;17.21;100.00;98488.47;5137401;27;19927;-81
2021/06/20 12:17:56;;;;;;;;;;;;;;;17.59;100.00;98479.25;5119453;27;19977;-81
2021/06/20 12:20:31;;;;;;;;;;;;;;;17.40;100.00;98481.41;5118382;27;19931;-79
2021/06/20 12:22:59;;;;;;;;;;;;;;;16.80;100.00;98480.91;5135680;27;20384;-79
2021/06/20 12:25:26;;;;;;;;;;;;;;;16.83;100.00;98487.63;5136029;27;20486;-79
2021/06/20 12:27:53;;;;;;;;;;;;;;;16.97;100.00;98495.38;5130173;27;19923;-79
2021/06/20 12:30:22;;;;;;;;;;;;;;;16.73;100.00;98500.22;5118134;27;19924;-81
2021/06/20 12:32:49;;;;;;;;;;;;;;;16.25;100.00;98494.44;5136785;27;20382;-80
2021/06/20 12:35:23;;;;;;;;;;;;;;;16.47;100.00;98493.44;5149811;27;20355;-79
2021/06/20 12:37:51;;;;;;;;;;;;;;;15.60;100.00;98497.09;5136568;27;19969;-83
2021/06/20 12:40:21;;;;;;;;;;;;;;;15.66;100.00;98503.66;5140109;27;20011;-79
2021/06/20 12:42:49;;;;;;;;;;;;;;;16.03;100.00;98501.56;5145681;27;19926;-79
2021/06/20 12:45:18;;;;;;;;;;;;;;;16.22;100.00;98492.56;5136127;27;20000;-79